sensor_id;sensor_type;location;lat;lon;timestamp;P1;durP1;ratioP1;P2;durP2;ratioP2
39454;SDS011;25155;41.890;23.446;2023-05-01T00:02:21;4.82;;;3.47;;
39454;SDS011;25155;41.890;23.446;2023-05-01T00:04:49;4.60;;;3.65;;
39454;SDS011;25155;41.890;23.446;2023-05-01T00:07:16;8.80;;;4.82;;
39454;SDS011;25155;41.890;23.446;2023-05-01T00:09:43;8.85;;;6.38;;
39454;SDS011;25155;41.890;23.446;2023-05-01T00:12:10;7.35;;;5.90;;
39454;SDS011;25155;41.890;23.446;2023-05-01T00:14:37;6.18;;;4.60;;
39454;SDS011;25155;41.890;23.446;2023-05-01T00:17:05;8.48;;;5.18;;
39454;SDS011;25155;41.890;23.446;2023-05-01T00:19:32;6.10;;;4.90;;
39454;SDS011;25155;41.890;23.446;2023-05-01T00:22:01;6.15;;;4.32;;
39454;SDS011;25155;41.890;23.446;2023-05-01T00:24:28;6.43;;;4.50;;
39454;SDS011;25155;41.890;23.446;2023-05-01T00:26:55;5.43;;;4.15;;
39454;SDS011;25155;41.890;23.446;2023-05-01T00:29:22;5.38;;;3.97;;
39454;SDS011;25155;41.890;23.446;2023-05-01T00:31:49;4.70;;;3.38;;
39454;SDS011;25155;41.890;23.446;2023-05-01T00:34:17;4.90;;;3.10;;
39454;SDS011;25155;41.890;23.446;2023-05-01T00:36:44;6.07;;;4.00;;
39454;SDS011;25155;41.890;23.446;2023-05-01T00:39:13;5.90;;;3.88;;
39454;SDS011;25155;41.890;23.446;2023-05-01T00:41:40;5.97;;;4.82;;
39454;SDS011;25155;41.890;23.446;2023-05-01T00:44:07;5.70;;;4.47;;
39454;SDS011;25155;41.890;23.446;2023-05-01T00:46:34;6.38;;;5.00;;
39454;SDS011;25155;41.890;23.446;2023-05-01T00:49:02;5.53;;;4.30;;
39454;SDS011;25155;41.890;23.446;2023-05-01T00:51:29;5.57;;;4.45;;
39454;SDS011;25155;41.890;23.446;2023-05-01T00:53:57;5.53;;;4.10;;
39454;SDS011;25155;41.890;23.446;2023-05-01T00:56:27;5.38;;;3.90;;
39454;SDS011;25155;41.890;23.446;2023-05-01T00:58:54;5.43;;;3.75;;
39454;SDS011;25155;41.890;23.446;2023-05-01T01:01:22;6.65;;;3.88;;
39454;SDS011;25155;41.890;23.446;2023-05-01T01:03:49;5.10;;;3.45;;
39454;SDS011;25155;41.890;23.446;2023-05-01T01:06:19;4.68;;;3.20;;
39454;SDS011;25155;41.890;23.446;2023-05-01T01:08:58;6.68;;;5.03;;
39454;SDS011;25155;41.890;23.446;2023-05-01T01:11:35;6.55;;;4.90;;
39454;SDS011;25155;41.890;23.446;2023-05-01T01:14:09;6.03;;;4.03;;
39454;SDS011;25155;41.890;23.446;2023-05-01T01:16:43;5.63;;;4.43;;
39454;SDS011;25155;41.890;23.446;2023-05-01T01:19:29;5.90;;;4.10;;
39454;SDS011;25155;41.890;23.446;2023-05-01T01:22:16;4.80;;;3.70;;
39454;SDS011;25155;41.890;23.446;2023-05-01T01:27:53;7.18;;;4.72;;
39454;SDS011;25155;41.890;23.446;2023-05-01T01:31:02;5.97;;;4.57;;
39454;SDS011;25155;41.890;23.446;2023-05-01T01:36:35;6.75;;;4.35;;
39454;SDS011;25155;41.890;23.446;2023-05-01T01:39:10;5.63;;;4.07;;
39454;SDS011;25155;41.890;23.446;2023-05-01T01:41:49;5.97;;;4.47;;
39454;SDS011;25155;41.890;23.446;2023-05-01T01:44:19;6.07;;;4.25;;
39454;SDS011;25155;41.890;23.446;2023-05-01T01:46:54;6.47;;;4.75;;
39454;SDS011;25155;41.890;23.446;2023-05-01T01:49:24;6.82;;;5.38;;
39454;SDS011;25155;41.890;23.446;2023-05-01T01:51:53;7.80;;;6.13;;
39454;SDS011;25155;41.890;23.446;2023-05-01T01:54:25;7.28;;;5.50;;
39454;SDS011;25155;41.890;23.446;2023-05-01T01:56:55;6.68;;;5.10;;
39454;SDS011;25155;41.890;23.446;2023-05-01T01:59:27;6.75;;;5.63;;
39454;SDS011;25155;41.890;23.446;2023-05-01T02:01:57;7.15;;;5.43;;
39454;SDS011;25155;41.890;23.446;2023-05-01T02:04:28;7.65;;;6.00;;
39454;SDS011;25155;41.890;23.446;2023-05-01T02:06:57;6.85;;;5.05;;
39454;SDS011;25155;41.890;23.446;2023-05-01T02:09:27;7.00;;;5.90;;
39454;SDS011;25155;41.890;23.446;2023-05-01T02:11:55;6.28;;;5.28;;
39454;SDS011;25155;41.890;23.446;2023-05-01T02:14:25;7.20;;;4.95;;
39454;SDS011;25155;41.890;23.446;2023-05-01T02:16:53;7.07;;;5.30;;
39454;SDS011;25155;41.890;23.446;2023-05-01T02:19:21;7.00;;;5.40;;
39454;SDS011;25155;41.890;23.446;2023-05-01T02:21:52;7.30;;;6.00;;
39454;SDS011;25155;41.890;23.446;2023-05-01T02:24:21;7.82;;;4.93;;
39454;SDS011;25155;41.890;23.446;2023-05-01T02:26:51;6.05;;;4.63;;
39454;SDS011;25155;41.890;23.446;2023-05-01T02:29:22;5.45;;;3.90;;
39454;SDS011;25155;41.890;23.446;2023-05-01T02:31:49;5.22;;;4.00;;
39454;SDS011;25155;41.890;23.446;2023-05-01T02:34:16;5.55;;;4.30;;
39454;SDS011;25155;41.890;23.446;2023-05-01T02:36:43;6.47;;;5.22;;
39454;SDS011;25155;41.890;23.446;2023-05-01T02:39:12;9.32;;;6.78;;
39454;SDS011;25155;41.890;23.446;2023-05-01T02:41:39;6.57;;;5.05;;
39454;SDS011;25155;41.890;23.446;2023-05-01T02:44:08;7.63;;;5.60;;
39454;SDS011;25155;41.890;23.446;2023-05-01T02:46:37;8.20;;;6.53;;
39454;SDS011;25155;41.890;23.446;2023-05-01T02:49:09;7.00;;;5.55;;
39454;SDS011;25155;41.890;23.446;2023-05-01T02:51:37;7.80;;;5.88;;
39454;SDS011;25155;41.890;23.446;2023-05-01T02:54:05;10.00;;;7.05;;
39454;SDS011;25155;41.890;23.446;2023-05-01T02:56:35;7.60;;;5.80;;
39454;SDS011;25155;41.890;23.446;2023-05-01T02:59:03;8.93;;;6.35;;
39454;SDS011;25155;41.890;23.446;2023-05-01T03:01:30;9.93;;;6.30;;
39454;SDS011;25155;41.890;23.446;2023-05-01T03:03:57;9.55;;;6.50;;
39454;SDS011;25155;41.890;23.446;2023-05-01T03:06:24;11.63;;;8.45;;
39454;SDS011;25155;41.890;23.446;2023-05-01T03:08:53;11.43;;;7.80;;
39454;SDS011;25155;41.890;23.446;2023-05-01T03:11:20;8.68;;;6.75;;
39454;SDS011;25155;41.890;23.446;2023-05-01T03:13:50;9.05;;;7.03;;
39454;SDS011;25155;41.890;23.446;2023-05-01T03:16:17;7.55;;;6.10;;
39454;SDS011;25155;41.890;23.446;2023-05-01T03:18:44;9.25;;;7.30;;
39454;SDS011;25155;41.890;23.446;2023-05-01T03:21:11;8.35;;;6.15;;
39454;SDS011;25155;41.890;23.446;2023-05-01T03:23:38;8.55;;;6.93;;
39454;SDS011;25155;41.890;23.446;2023-05-01T03:26:05;7.40;;;6.13;;
39454;SDS011;25155;41.890;23.446;2023-05-01T03:28:33;7.25;;;6.10;;
39454;SDS011;25155;41.890;23.446;2023-05-01T03:31:01;7.05;;;5.05;;
39454;SDS011;25155;41.890;23.446;2023-05-01T03:33:28;8.63;;;6.40;;
39454;SDS011;25155;41.890;23.446;2023-05-01T03:35:59;7.68;;;6.10;;
39454;SDS011;25155;41.890;23.446;2023-05-01T03:38:28;6.68;;;4.85;;
39454;SDS011;25155;41.890;23.446;2023-05-01T03:40:56;7.03;;;5.40;;
39454;SDS011;25155;41.890;23.446;2023-05-01T03:43:23;8.10;;;5.78;;
39454;SDS011;25155;41.890;23.446;2023-05-01T03:45:51;6.90;;;5.45;;
39454;SDS011;25155;41.890;23.446;2023-05-01T03:48:19;8.80;;;6.88;;
39454;SDS011;25155;41.890;23.446;2023-05-01T03:50:47;7.45;;;5.78;;
39454;SDS011;25155;41.890;23.446;2023-05-01T03:53:14;6.40;;;4.88;;
39454;SDS011;25155;41.890;23.446;2023-05-01T03:55:41;6.65;;;4.78;;
39454;SDS011;25155;41.890;23.446;2023-05-01T03:58:09;11.32;;;8.88;;
39454;SDS011;25155;41.890;23.446;2023-05-01T04:00:36;17.25;;;12.50;;
39454;SDS011;25155;41.890;23.446;2023-05-01T04:03:03;15.98;;;12.57;;
39454;SDS011;25155;41.890;23.446;2023-05-01T04:05:32;24.42;;;16.73;;
39454;SDS011;25155;41.890;23.446;2023-05-01T04:07:59;21.15;;;17.08;;
39454;SDS011;25155;41.890;23.446;2023-05-01T04:10:26;23.77;;;17.75;;
39454;SDS011;25155;41.890;23.446;2023-05-01T04:12:53;23.58;;;16.65;;
39454;SDS011;25155;41.890;23.446;2023-05-01T04:15:20;20.40;;;16.38;;
39454;SDS011;25155;41.890;23.446;2023-05-01T04:17:47;22.45;;;17.55;;
39454;SDS011;25155;41.890;23.446;2023-05-01T04:20:15;24.92;;;18.00;;
39454;SDS011;25155;41.890;23.446;2023-05-01T04:22:45;20.35;;;16.88;;
39454;SDS011;25155;41.890;23.446;2023-05-01T04:25:12;21.02;;;16.85;;
39454;SDS011;25155;41.890;23.446;2023-05-01T04:27:39;20.00;;;15.60;;
39454;SDS011;25155;41.890;23.446;2023-05-01T04:30:06;17.50;;;14.25;;
39454;SDS011;25155;41.890;23.446;2023-05-01T04:32:34;16.48;;;12.95;;
39454;SDS011;25155;41.890;23.446;2023-05-01T04:35:01;13.15;;;11.30;;
39454;SDS011;25155;41.890;23.446;2023-05-01T04:37:29;14.77;;;11.90;;
39454;SDS011;25155;41.890;23.446;2023-05-01T04:39:57;13.45;;;10.38;;
39454;SDS011;25155;41.890;23.446;2023-05-01T04:42:29;12.63;;;9.38;;
39454;SDS011;25155;41.890;23.446;2023-05-01T04:44:56;11.43;;;8.80;;
39454;SDS011;25155;41.890;23.446;2023-05-01T04:47:25;14.88;;;10.18;;
39454;SDS011;25155;41.890;23.446;2023-05-01T04:49:53;13.23;;;10.00;;
39454;SDS011;25155;41.890;23.446;2023-05-01T04:52:20;10.15;;;8.45;;
39454;SDS011;25155;41.890;23.446;2023-05-01T04:54:47;11.35;;;9.20;;
39454;SDS011;25155;41.890;23.446;2023-05-01T04:57:15;11.18;;;8.90;;
39454;SDS011;25155;41.890;23.446;2023-05-01T04:59:42;9.95;;;7.40;;
39454;SDS011;25155;41.890;23.446;2023-05-01T05:02:09;9.93;;;7.63;;
39454;SDS011;25155;41.890;23.446;2023-05-01T05:04:37;9.95;;;7.82;;
39454;SDS011;25155;41.890;23.446;2023-05-01T05:07:04;11.48;;;8.93;;
39454;SDS011;25155;41.890;23.446;2023-05-01T05:09:31;9.90;;;8.05;;
39454;SDS011;25155;41.890;23.446;2023-05-01T05:11:58;11.07;;;8.77;;
39454;SDS011;25155;41.890;23.446;2023-05-01T05:14:26;15.02;;;10.73;;
39454;SDS011;25155;41.890;23.446;2023-05-01T05:16:53;11.18;;;9.73;;
39454;SDS011;25155;41.890;23.446;2023-05-01T05:19:20;15.23;;;11.50;;
39454;SDS011;25155;41.890;23.446;2023-05-01T05:21:48;25.52;;;18.95;;
39454;SDS011;25155;41.890;23.446;2023-05-01T05:24:15;23.67;;;17.52;;
39454;SDS011;25155;41.890;23.446;2023-05-01T05:26:42;24.27;;;16.17;;
39454;SDS011;25155;41.890;23.446;2023-05-01T05:29:09;17.88;;;13.95;;
39454;SDS011;25155;41.890;23.446;2023-05-01T05:31:37;22.50;;;16.15;;
39454;SDS011;25155;41.890;23.446;2023-05-01T05:34:04;25.95;;;16.88;;
39454;SDS011;25155;41.890;23.446;2023-05-01T05:36:31;18.15;;;13.90;;
39454;SDS011;25155;41.890;23.446;2023-05-01T05:38:59;17.27;;;13.70;;
39454;SDS011;25155;41.890;23.446;2023-05-01T05:41:27;18.30;;;15.93;;
39454;SDS011;25155;41.890;23.446;2023-05-01T05:43:54;17.05;;;13.10;;
39454;SDS011;25155;41.890;23.446;2023-05-01T05:46:21;16.52;;;12.75;;
39454;SDS011;25155;41.890;23.446;2023-05-01T05:48:50;22.00;;;16.20;;
39454;SDS011;25155;41.890;23.446;2023-05-01T05:51:17;19.17;;;14.13;;
39454;SDS011;25155;41.890;23.446;2023-05-01T05:53:44;17.50;;;12.77;;
39454;SDS011;25155;41.890;23.446;2023-05-01T05:56:11;16.65;;;11.93;;
39454;SDS011;25155;41.890;23.446;2023-05-01T05:58:38;21.13;;;15.60;;
39454;SDS011;25155;41.890;23.446;2023-05-01T06:01:05;15.73;;;13.20;;
39454;SDS011;25155;41.890;23.446;2023-05-01T06:03:33;21.98;;;15.43;;
39454;SDS011;25155;41.890;23.446;2023-05-01T06:06:02;17.25;;;13.27;;
39454;SDS011;25155;41.890;23.446;2023-05-01T06:08:30;18.80;;;13.80;;
39454;SDS011;25155;41.890;23.446;2023-05-01T06:10:59;17.17;;;14.32;;
39454;SDS011;25155;41.890;23.446;2023-05-01T06:13:26;17.75;;;14.02;;
39454;SDS011;25155;41.890;23.446;2023-05-01T06:15:53;18.35;;;13.73;;
39454;SDS011;25155;41.890;23.446;2023-05-01T06:18:21;20.35;;;15.32;;
39454;SDS011;25155;41.890;23.446;2023-05-01T06:20:48;17.73;;;13.73;;
39454;SDS011;25155;41.890;23.446;2023-05-01T06:23:17;15.75;;;12.98;;
39454;SDS011;25155;41.890;23.446;2023-05-01T06:25:45;22.50;;;15.93;;
39454;SDS011;25155;41.890;23.446;2023-05-01T06:28:13;20.35;;;15.48;;
39454;SDS011;25155;41.890;23.446;2023-05-01T06:30:40;20.38;;;16.20;;
39454;SDS011;25155;41.890;23.446;2023-05-01T06:33:07;23.40;;;18.00;;
39454;SDS011;25155;41.890;23.446;2023-05-01T06:35:35;18.95;;;15.57;;
39454;SDS011;25155;41.890;23.446;2023-05-01T06:38:04;22.38;;;17.05;;
39454;SDS011;25155;41.890;23.446;2023-05-01T06:40:32;21.83;;;17.02;;
39454;SDS011;25155;41.890;23.446;2023-05-01T06:43:00;17.48;;;14.95;;
39454;SDS011;25155;41.890;23.446;2023-05-01T06:45:27;20.60;;;17.38;;
39454;SDS011;25155;41.890;23.446;2023-05-01T06:47:54;22.63;;;16.90;;
39454;SDS011;25155;41.890;23.446;2023-05-01T06:50:21;19.63;;;16.58;;
39454;SDS011;25155;41.890;23.446;2023-05-01T06:52:48;18.17;;;15.90;;
39454;SDS011;25155;41.890;23.446;2023-05-01T06:55:15;21.58;;;15.50;;
39454;SDS011;25155;41.890;23.446;2023-05-01T06:57:44;19.27;;;15.50;;
39454;SDS011;25155;41.890;23.446;2023-05-01T07:00:11;17.77;;;14.60;;
39454;SDS011;25155;41.890;23.446;2023-05-01T07:02:41;14.32;;;11.68;;
39454;SDS011;25155;41.890;23.446;2023-05-01T07:05:10;13.48;;;11.30;;
39454;SDS011;25155;41.890;23.446;2023-05-01T07:07:37;15.52;;;12.75;;
39454;SDS011;25155;41.890;23.446;2023-05-01T07:10:04;12.85;;;10.02;;
39454;SDS011;25155;41.890;23.446;2023-05-01T07:12:32;8.73;;;7.40;;
39454;SDS011;25155;41.890;23.446;2023-05-01T07:15:00;8.98;;;6.95;;
39454;SDS011;25155;41.890;23.446;2023-05-01T07:17:28;8.38;;;5.57;;
39454;SDS011;25155;41.890;23.446;2023-05-01T07:19:55;9.98;;;7.28;;
39454;SDS011;25155;41.890;23.446;2023-05-01T07:22:22;8.93;;;7.03;;
39454;SDS011;25155;41.890;23.446;2023-05-01T07:24:49;10.88;;;7.93;;
39454;SDS011;25155;41.890;23.446;2023-05-01T07:27:16;9.68;;;7.10;;
39454;SDS011;25155;41.890;23.446;2023-05-01T07:29:44;8.85;;;6.18;;
39454;SDS011;25155;41.890;23.446;2023-05-01T07:32:13;8.10;;;5.60;;
39454;SDS011;25155;41.890;23.446;2023-05-01T07:34:40;7.15;;;5.43;;
39454;SDS011;25155;41.890;23.446;2023-05-01T07:37:07;5.78;;;4.03;;
39454;SDS011;25155;41.890;23.446;2023-05-01T07:39:34;6.97;;;5.03;;
39454;SDS011;25155;41.890;23.446;2023-05-01T07:42:01;7.03;;;5.22;;
39454;SDS011;25155;41.890;23.446;2023-05-01T07:44:28;6.68;;;5.30;;
39454;SDS011;25155;41.890;23.446;2023-05-01T07:47:01;7.07;;;5.40;;
39454;SDS011;25155;41.890;23.446;2023-05-01T07:49:29;8.52;;;4.82;;
39454;SDS011;25155;41.890;23.446;2023-05-01T07:52:01;5.25;;;3.95;;
39454;SDS011;25155;41.890;23.446;2023-05-01T07:54:28;4.75;;;2.95;;
39454;SDS011;25155;41.890;23.446;2023-05-01T07:56:55;6.40;;;4.65;;
39454;SDS011;25155;41.890;23.446;2023-05-01T07:59:22;6.78;;;4.80;;
39454;SDS011;25155;41.890;23.446;2023-05-01T08:01:49;6.55;;;4.90;;
39454;SDS011;25155;41.890;23.446;2023-05-01T08:04:16;7.07;;;4.90;;
39454;SDS011;25155;41.890;23.446;2023-05-01T08:06:48;6.53;;;4.05;;
39454;SDS011;25155;41.890;23.446;2023-05-01T08:09:16;6.25;;;4.35;;
39454;SDS011;25155;41.890;23.446;2023-05-01T08:11:43;8.32;;;4.90;;
39454;SDS011;25155;41.890;23.446;2023-05-01T08:14:10;6.55;;;4.70;;
39454;SDS011;25155;41.890;23.446;2023-05-01T08:16:37;8.48;;;5.05;;
39454;SDS011;25155;41.890;23.446;2023-05-01T08:19:04;7.70;;;4.72;;
39454;SDS011;25155;41.890;23.446;2023-05-01T08:21:31;7.15;;;4.60;;
39454;SDS011;25155;41.890;23.446;2023-05-01T08:23:59;6.85;;;5.03;;
39454;SDS011;25155;41.890;23.446;2023-05-01T08:26:26;8.00;;;5.10;;
39454;SDS011;25155;41.890;23.446;2023-05-01T08:28:55;7.97;;;4.97;;
39454;SDS011;25155;41.890;23.446;2023-05-01T08:31:22;6.15;;;4.30;;
39454;SDS011;25155;41.890;23.446;2023-05-01T08:33:50;6.43;;;4.40;;
39454;SDS011;25155;41.890;23.446;2023-05-01T08:36:17;5.10;;;3.67;;
39454;SDS011;25155;41.890;23.446;2023-05-01T08:38:44;5.15;;;3.90;;
39454;SDS011;25155;41.890;23.446;2023-05-01T08:41:15;4.70;;;3.40;;
39454;SDS011;25155;41.890;23.446;2023-05-01T08:43:47;4.63;;;3.10;;
39454;SDS011;25155;41.890;23.446;2023-05-01T08:46:14;5.38;;;2.67;;
39454;SDS011;25155;41.890;23.446;2023-05-01T08:48:47;4.00;;;2.70;;
39454;SDS011;25155;41.890;23.446;2023-05-01T08:51:16;3.15;;;2.13;;
39454;SDS011;25155;41.890;23.446;2023-05-01T08:53:47;3.80;;;2.60;;
39454;SDS011;25155;41.890;23.446;2023-05-01T08:56:17;5.20;;;2.88;;
39454;SDS011;25155;41.890;23.446;2023-05-01T08:58:47;4.63;;;2.20;;
39454;SDS011;25155;41.890;23.446;2023-05-01T09:01:16;2.72;;;1.92;;
39454;SDS011;25155;41.890;23.446;2023-05-01T09:03:45;2.67;;;1.95;;
39454;SDS011;25155;41.890;23.446;2023-05-01T09:06:15;5.10;;;2.65;;
39454;SDS011;25155;41.890;23.446;2023-05-01T09:08:42;3.40;;;2.30;;
39454;SDS011;25155;41.890;23.446;2023-05-01T09:11:10;2.90;;;1.90;;
39454;SDS011;25155;41.890;23.446;2023-05-01T09:13:39;3.45;;;2.30;;
39454;SDS011;25155;41.890;23.446;2023-05-01T09:16:06;4.30;;;2.20;;
39454;SDS011;25155;41.890;23.446;2023-05-01T09:18:34;2.90;;;2.00;;
39454;SDS011;25155;41.890;23.446;2023-05-01T09:21:01;4.38;;;2.10;;
39454;SDS011;25155;41.890;23.446;2023-05-01T09:23:28;2.97;;;2.00;;
39454;SDS011;25155;41.890;23.446;2023-05-01T09:25:56;3.80;;;2.20;;
39454;SDS011;25155;41.890;23.446;2023-05-01T09:28:42;4.97;;;2.20;;
39454;SDS011;25155;41.890;23.446;2023-05-01T09:31:20;3.50;;;2.17;;
39454;SDS011;25155;41.890;23.446;2023-05-01T09:33:50;3.10;;;1.98;;
39454;SDS011;25155;41.890;23.446;2023-05-01T09:36:19;2.45;;;2.00;;
39454;SDS011;25155;41.890;23.446;2023-05-01T09:38:47;4.45;;;2.30;;
39454;SDS011;25155;41.890;23.446;2023-05-01T09:41:14;2.95;;;2.10;;
39454;SDS011;25155;41.890;23.446;2023-05-01T09:43:42;3.97;;;1.98;;
39454;SDS011;25155;41.890;23.446;2023-05-01T09:46:16;4.47;;;2.15;;
39454;SDS011;25155;41.890;23.446;2023-05-01T09:48:50;3.28;;;2.17;;
39454;SDS011;25155;41.890;23.446;2023-05-01T09:51:20;3.58;;;2.20;;
39454;SDS011;25155;41.890;23.446;2023-05-01T09:53:49;3.60;;;2.30;;
39454;SDS011;25155;41.890;23.446;2023-05-01T09:56:17;3.05;;;2.10;;
39454;SDS011;25155;41.890;23.446;2023-05-01T09:58:46;3.97;;;2.45;;
39454;SDS011;25155;41.890;23.446;2023-05-01T10:01:13;4.43;;;2.30;;
39454;SDS011;25155;41.890;23.446;2023-05-01T10:03:42;2.97;;;2.15;;
39454;SDS011;25155;41.890;23.446;2023-05-01T10:06:10;3.83;;;2.30;;
39454;SDS011;25155;41.890;23.446;2023-05-01T10:08:43;5.82;;;2.45;;
39454;SDS011;25155;41.890;23.446;2023-05-01T10:11:14;2.85;;;2.13;;
39454;SDS011;25155;41.890;23.446;2023-05-01T10:13:41;3.00;;;2.03;;
39454;SDS011;25155;41.890;23.446;2023-05-01T10:16:27;3.40;;;2.20;;
39454;SDS011;25155;41.890;23.446;2023-05-01T10:18:55;4.15;;;2.10;;
39454;SDS011;25155;41.890;23.446;2023-05-01T10:21:22;3.70;;;2.10;;
39454;SDS011;25155;41.890;23.446;2023-05-01T10:23:50;3.25;;;1.90;;
39454;SDS011;25155;41.890;23.446;2023-05-01T10:26:17;2.10;;;1.80;;
39454;SDS011;25155;41.890;23.446;2023-05-01T10:28:45;3.13;;;1.90;;
39454;SDS011;25155;41.890;23.446;2023-05-01T10:31:14;2.58;;;1.90;;
39454;SDS011;25155;41.890;23.446;2023-05-01T10:33:43;2.75;;;1.98;;
39454;SDS011;25155;41.890;23.446;2023-05-01T10:36:13;3.47;;;1.95;;
39454;SDS011;25155;41.890;23.446;2023-05-01T10:38:44;2.90;;;1.92;;
39454;SDS011;25155;41.890;23.446;2023-05-01T10:41:13;2.72;;;1.80;;
39454;SDS011;25155;41.890;23.446;2023-05-01T10:43:41;2.28;;;1.90;;
39454;SDS011;25155;41.890;23.446;2023-05-01T10:46:27;3.63;;;1.90;;
39454;SDS011;25155;41.890;23.446;2023-05-01T10:48:59;2.90;;;2.00;;
39454;SDS011;25155;41.890;23.446;2023-05-01T10:51:26;3.20;;;2.05;;
39454;SDS011;25155;41.890;23.446;2023-05-01T10:56:49;3.22;;;2.05;;
39454;SDS011;25155;41.890;23.446;2023-05-01T10:59:17;3.03;;;2.03;;
39454;SDS011;25155;41.890;23.446;2023-05-01T11:01:45;4.22;;;2.40;;
39454;SDS011;25155;41.890;23.446;2023-05-01T11:07:18;4.45;;;2.25;;
39454;SDS011;25155;41.890;23.446;2023-05-01T11:12:46;5.20;;;2.10;;
39454;SDS011;25155;41.890;23.446;2023-05-01T11:15:24;3.60;;;2.03;;
39454;SDS011;25155;41.890;23.446;2023-05-01T11:17:56;4.43;;;1.98;;
39454;SDS011;25155;41.890;23.446;2023-05-01T11:23:17;3.05;;;2.00;;
39454;SDS011;25155;41.890;23.446;2023-05-01T11:25:48;2.70;;;1.90;;
39454;SDS011;25155;41.890;23.446;2023-05-01T11:28:19;5.53;;;2.13;;
39454;SDS011;25155;41.890;23.446;2023-05-01T11:33:20;5.25;;;2.30;;
39454;SDS011;25155;41.890;23.446;2023-05-01T11:36:01;2.85;;;1.90;;
39454;SDS011;25155;41.890;23.446;2023-05-01T11:38:29;3.33;;;2.00;;
39454;SDS011;25155;41.890;23.446;2023-05-01T11:40:58;4.25;;;1.98;;
39454;SDS011;25155;41.890;23.446;2023-05-01T11:43:28;2.28;;;1.90;;
39454;SDS011;25155;41.890;23.446;2023-05-01T11:45:55;5.07;;;3.22;;
39454;SDS011;25155;41.890;23.446;2023-05-01T11:48:28;3.75;;;2.30;;
39454;SDS011;25155;41.890;23.446;2023-05-01T11:50:56;3.42;;;1.90;;
39454;SDS011;25155;41.890;23.446;2023-05-01T11:53:25;3.80;;;2.58;;
39454;SDS011;25155;41.890;23.446;2023-05-01T11:55:52;3.80;;;2.40;;
39454;SDS011;25155;41.890;23.446;2023-05-01T11:58:29;5.50;;;2.80;;
39454;SDS011;25155;41.890;23.446;2023-05-01T12:00:58;3.63;;;2.20;;
39454;SDS011;25155;41.890;23.446;2023-05-01T12:03:25;2.72;;;2.00;;
39454;SDS011;25155;41.890;23.446;2023-05-01T12:05:52;3.83;;;1.75;;
39454;SDS011;25155;41.890;23.446;2023-05-01T12:08:19;2.90;;;2.08;;
39454;SDS011;25155;41.890;23.446;2023-05-01T12:10:49;3.08;;;2.10;;
39454;SDS011;25155;41.890;23.446;2023-05-01T12:13:17;2.13;;;1.80;;
39454;SDS011;25155;41.890;23.446;2023-05-01T12:15:46;2.95;;;2.10;;
39454;SDS011;25155;41.890;23.446;2023-05-01T12:18:16;2.80;;;1.90;;
39454;SDS011;25155;41.890;23.446;2023-05-01T12:20:45;2.88;;;2.00;;
39454;SDS011;25155;41.890;23.446;2023-05-01T12:23:14;2.47;;;1.85;;
39454;SDS011;25155;41.890;23.446;2023-05-01T12:25:42;3.67;;;2.10;;
39454;SDS011;25155;41.890;23.446;2023-05-01T12:28:11;2.75;;;1.98;;
39454;SDS011;25155;41.890;23.446;2023-05-01T12:30:40;2.30;;;1.80;;
39454;SDS011;25155;41.890;23.446;2023-05-01T12:33:09;2.25;;;1.80;;
39454;SDS011;25155;41.890;23.446;2023-05-01T12:35:38;2.25;;;1.67;;
39454;SDS011;25155;41.890;23.446;2023-05-01T12:38:09;3.10;;;2.05;;
39454;SDS011;25155;41.890;23.446;2023-05-01T12:40:38;3.13;;;1.98;;
39454;SDS011;25155;41.890;23.446;2023-05-01T12:43:06;2.60;;;1.90;;
39454;SDS011;25155;41.890;23.446;2023-05-01T12:45:39;2.80;;;1.80;;
39454;SDS011;25155;41.890;23.446;2023-05-01T12:48:10;2.92;;;1.70;;
39454;SDS011;25155;41.890;23.446;2023-05-01T12:50:39;2.28;;;1.70;;
39454;SDS011;25155;41.890;23.446;2023-05-01T12:53:08;2.88;;;2.08;;
39454;SDS011;25155;41.890;23.446;2023-05-01T12:55:42;3.45;;;2.20;;
39454;SDS011;25155;41.890;23.446;2023-05-01T12:58:11;1.98;;;1.60;;
39454;SDS011;25155;41.890;23.446;2023-05-01T13:00:43;1.58;;;1.40;;
39454;SDS011;25155;41.890;23.446;2023-05-01T13:03:11;1.80;;;1.40;;
39454;SDS011;25155;41.890;23.446;2023-05-01T13:05:54;3.05;;;1.98;;
39454;SDS011;25155;41.890;23.446;2023-05-01T13:08:25;2.45;;;1.80;;
39454;SDS011;25155;41.890;23.446;2023-05-01T13:10:55;1.75;;;1.63;;
39454;SDS011;25155;41.890;23.446;2023-05-01T13:13:23;2.05;;;1.60;;
39454;SDS011;25155;41.890;23.446;2023-05-01T13:16:04;4.20;;;1.80;;
39454;SDS011;25155;41.890;23.446;2023-05-01T13:18:43;2.30;;;1.67;;
39454;SDS011;25155;41.890;23.446;2023-05-01T13:21:12;5.22;;;2.80;;
39454;SDS011;25155;41.890;23.446;2023-05-01T13:23:41;3.33;;;1.90;;
39454;SDS011;25155;41.890;23.446;2023-05-01T13:26:16;4.50;;;2.00;;
39454;SDS011;25155;41.890;23.446;2023-05-01T13:28:44;2.97;;;2.05;;
39454;SDS011;25155;41.890;23.446;2023-05-01T13:31:14;2.55;;;1.80;;
39454;SDS011;25155;41.890;23.446;2023-05-01T13:33:41;2.25;;;1.65;;
39454;SDS011;25155;41.890;23.446;2023-05-01T13:36:08;2.05;;;1.60;;
39454;SDS011;25155;41.890;23.446;2023-05-01T13:38:41;1.52;;;1.42;;
39454;SDS011;25155;41.890;23.446;2023-05-01T13:41:14;1.70;;;1.60;;
39454;SDS011;25155;41.890;23.446;2023-05-01T13:43:43;2.40;;;1.67;;
39454;SDS011;25155;41.890;23.446;2023-05-01T13:46:10;3.92;;;1.77;;
39454;SDS011;25155;41.890;23.446;2023-05-01T13:48:41;3.08;;;1.80;;
39454;SDS011;25155;41.890;23.446;2023-05-01T13:51:09;3.42;;;1.50;;
39454;SDS011;25155;41.890;23.446;2023-05-01T13:53:38;1.70;;;1.60;;
39454;SDS011;25155;41.890;23.446;2023-05-01T13:56:07;2.80;;;1.80;;
39454;SDS011;25155;41.890;23.446;2023-05-01T13:58:37;2.50;;;1.80;;
39454;SDS011;25155;41.890;23.446;2023-05-01T14:01:05;2.63;;;1.90;;
39454;SDS011;25155;41.890;23.446;2023-05-01T14:03:42;2.75;;;1.80;;
39454;SDS011;25155;41.890;23.446;2023-05-01T14:06:09;4.32;;;2.00;;
39454;SDS011;25155;41.890;23.446;2023-05-01T14:08:37;3.15;;;1.98;;
39454;SDS011;25155;41.890;23.446;2023-05-01T14:11:05;4.80;;;1.98;;
39454;SDS011;25155;41.890;23.446;2023-05-01T14:13:34;2.92;;;2.00;;
39454;SDS011;25155;41.890;23.446;2023-05-01T14:16:03;2.08;;;1.50;;
39454;SDS011;25155;41.890;23.446;2023-05-01T14:18:53;3.20;;;1.75;;
39454;SDS011;25155;41.890;23.446;2023-05-01T14:21:21;4.68;;;2.85;;
39454;SDS011;25155;41.890;23.446;2023-05-01T14:23:51;7.45;;;4.55;;
39454;SDS011;25155;41.890;23.446;2023-05-01T14:26:19;5.53;;;4.10;;
39454;SDS011;25155;41.890;23.446;2023-05-01T14:28:48;6.00;;;4.07;;
39454;SDS011;25155;41.890;23.446;2023-05-01T14:31:15;8.20;;;5.32;;
39454;SDS011;25155;41.890;23.446;2023-05-01T14:33:50;7.10;;;4.18;;
39454;SDS011;25155;41.890;23.446;2023-05-01T14:36:21;8.13;;;4.80;;
39454;SDS011;25155;41.890;23.446;2023-05-01T14:38:49;5.55;;;3.38;;
39454;SDS011;25155;41.890;23.446;2023-05-01T14:41:17;5.03;;;3.17;;
39454;SDS011;25155;41.890;23.446;2023-05-01T14:43:45;4.72;;;3.05;;
39454;SDS011;25155;41.890;23.446;2023-05-01T14:46:16;4.30;;;2.92;;
39454;SDS011;25155;41.890;23.446;2023-05-01T14:48:56;4.90;;;3.20;;
39454;SDS011;25155;41.890;23.446;2023-05-01T14:51:24;4.10;;;2.78;;
39454;SDS011;25155;41.890;23.446;2023-05-01T14:53:52;4.35;;;2.70;;
39454;SDS011;25155;41.890;23.446;2023-05-01T14:56:19;4.55;;;3.22;;
39454;SDS011;25155;41.890;23.446;2023-05-01T14:58:47;4.80;;;3.30;;
39454;SDS011;25155;41.890;23.446;2023-05-01T15:01:15;4.35;;;2.90;;